Time;durP1;ratioP1;P1;durP2;ratioP2;P2;SDS_P1;SDS_P2;PMS_P1;PMS_P2;Temp;Humidity;BMP_temperature;BMP_pressure;BME280_temperature;BME280_humidity;BME280_pressure;Samples;Min_cycle;Max_cycle;Signal;HPM_P1;HPM_P2
2022/11/18 00:00:34;;;;;;;19.00;9.93;;;;;;;3.21;98.83;99792.66;5071129;28;20446;-69
2022/11/18 00:03:01;;;;;;;19.93;10.00;;;;;;;3.24;99.43;99794.81;5059487;28;20537;-69
2022/11/18 00:05:27;;;;;;;23.30;9.60;;;;;;;3.34;99.21;99798.53;5074122;28;20524;-69
2022/11/18 00:07:54;;;;;;;22.30;9.83;;;;;;;3.33;100.00;99799.63;5073081;28;20896;-69
2022/11/18 00:10:22;;;;;;;20.30;8.60;;;;;;;3.39;99.63;99801.19;5074097;28;20448;-69
2022/11/18 00:15:33;;;;;;;25.17;10.40;;;;;;;3.52;98.89;99805.97;5073845;28;20460;-69
2022/11/18 00:17:59;;;;;;;16.20;9.27;;;;;;;3.47;98.43;99790.72;5071435;28;20512;-69
2022/11/18 00:20:26;;;;;;;18.17;9.87;;;;;;;3.43;98.91;99789.66;5059246;28;20472;-69
2022/11/18 00:22:53;;;;;;;20.87;9.43;;;;;;;3.44;99.12;99791.25;5058742;28;20463;-69
2022/11/18 00:25:19;;;;;;;20.83;9.03;;;;;;;3.39;99.06;99785.13;5058675;28;20457;-69
2022/11/18 00:27:47;;;;;;;22.70;9.33;;;;;;;3.44;98.88;99787.78;5033709;28;1118907;-69
2022/11/18 00:30:14;;;;;;;25.23;9.40;;;;;;;3.46;98.98;99791.81;5074531;28;20489;-69
2022/11/18 00:32:40;;;;;;;24.97;10.30;;;;;;;3.38;98.53;99799.59;5059309;28;20633;-69
2022/11/18 00:35:08;;;;;;;25.37;10.73;;;;;;;3.43;97.65;99804.94;5070976;28;20467;-69
2022/11/18 00:37:34;;;;;;;24.77;11.30;;;;;;;3.36;96.71;99797.16;5069508;28;20496;-69
2022/11/18 00:40:01;;;;;;;24.13;10.60;;;;;;;3.26;97.35;99808.72;5059112;28;20442;-69
2022/11/18 00:45:13;;;;;;;20.47;9.43;;;;;;;3.18;97.93;99795.09;5064500;28;20454;-69
2022/11/18 00:47:39;;;;;;;20.43;9.83;;;;;;;3.13;97.91;99798.56;5067200;28;20468;-69
2022/11/18 00:50:07;;;;;;;26.17;11.63;;;;;;;3.14;98.17;99800.16;5073331;28;20457;-68
2022/11/18 00:52:33;;;;;;;21.50;9.47;;;;;;;3.12;98.24;99812.22;5061441;28;20480;-69
2022/11/18 00:55:00;;;;;;;22.17;10.17;;;;;;;3.07;98.24;99801.53;5055657;28;20474;-69
2022/11/18 00:57:26;;;;;;;22.10;9.83;;;;;;;3.10;98.24;99812.50;5073608;28;20523;-69
2022/11/18 00:59:53;;;;;;;28.43;9.57;;;;;;;3.12;97.71;99796.97;5073025;28;20897;-69
2022/11/18 01:02:21;;;;;;;23.80;10.37;;;;;;;3.15;98.12;99807.16;5070125;28;20480;-69
2022/11/18 01:04:47;;;;;;;23.23;10.00;;;;;;;3.21;98.10;99803.38;5054092;28;20500;-69
2022/11/18 01:07:14;;;;;;;25.33;10.63;;;;;;;3.14;97.03;99800.16;5072531;28;22381;-69
2022/11/18 01:09:41;;;;;;;24.60;11.40;;;;;;;3.15;96.77;99809.81;5073524;28;20476;-69
2022/11/18 01:14:54;;;;;;;23.87;9.40;;;;;;;3.09;96.87;99818.13;5060664;28;20506;-69
2022/11/18 01:17:22;;;;;;;23.40;10.50;;;;;;;3.14;96.47;99816.22;5069931;28;20572;-68
2022/11/18 01:19:48;;;;;;;22.87;10.87;;;;;;;3.19;95.51;99815.44;5072938;28;20879;-69
2022/11/18 01:22:15;;;;;;;19.60;10.10;;;;;;;3.19;94.60;99818.13;5071064;28;20463;-69
2022/11/18 01:24:42;;;;;;;23.83;11.80;;;;;;;3.19;95.38;99824.28;5053879;28;20474;-70
2022/11/18 01:27:08;;;;;;;26.37;11.20;;;;;;;3.18;94.87;99811.94;5072375;28;20461;-69
2022/11/18 01:29:36;;;;;;;22.30;10.17;;;;;;;3.09;94.43;99818.13;5071518;28;20495;-69
2022/11/18 01:32:02;;;;;;;24.83;10.70;;;;;;;3.09;94.57;99812.75;5073039;28;20447;-69
2022/11/18 01:34:31;;;;;;;26.40;11.80;;;;;;;3.08;93.87;99817.31;5072495;28;20540;-69
2022/11/18 01:36:57;;;;;;;25.70;10.20;;;;;;;3.04;92.96;99816.25;5072870;28;20507;-70
2022/11/18 01:39:24;;;;;;;20.07;10.20;;;;;;;3.03;94.67;99814.66;5065119;28;20478;-69
2022/11/18 01:41:50;;;;;;;20.03;9.63;;;;;;;2.97;93.47;99829.13;5069006;28;20461;-71
2022/11/18 01:44:57;;;;;;;22.57;9.80;;;;;;;2.96;93.76;99825.63;5071718;28;20462;-70
2022/11/18 01:47:25;;;;;;;22.07;9.83;;;;;;;2.90;93.32;99831.25;5071438;28;20510;-69
2022/11/18 01:49:53;;;;;;;20.60;9.63;;;;;;;2.85;94.13;99826.72;5071114;28;20508;-69
2022/11/18 01:52:21;;;;;;;24.37;11.67;;;;;;;2.95;93.96;99828.56;5070124;28;21001;-69
2022/11/18 01:54:52;;;;;;;21.03;10.13;;;;;;;2.99;94.10;99827.75;5072296;28;20457;-69
2022/11/18 01:57:22;;;;;;;19.30;9.20;;;;;;;3.02;93.78;99826.44;5072552;28;20575;-69
2022/11/18 01:59:53;;;;;;;18.93;9.47;;;;;;;2.96;93.79;99825.63;5070509;28;20538;-70
2022/11/18 02:02:21;;;;;;;22.50;10.10;;;;;;;3.02;94.06;99827.22;5072587;28;20461;-69
2022/11/18 02:04:49;;;;;;;25.03;10.90;;;;;;;2.97;93.81;99821.91;5067706;28;20532;-69
2022/11/18 02:07:18;;;;;;;18.93;9.53;;;;;;;3.04;93.30;99826.94;5066904;28;20559;-71
2022/11/18 02:09:45;;;;;;;19.80;10.03;;;;;;;3.07;93.87;99821.06;5070078;28;20604;-70
2022/11/18 02:12:13;;;;;;;18.13;9.80;;;;;;;3.01;92.84;99811.44;5058392;28;20489;-70
2022/11/18 02:14:42;;;;;;;21.30;10.30;;;;;;;2.95;92.88;99824.03;5070243;28;20545;-70
2022/11/18 02:17:19;;;;;;;19.23;10.10;;;;;;;3.00;93.41;99821.34;5069466;28;20576;-70
2022/11/18 02:20:18;;;;;;;26.30;11.00;;;;;;;2.94;93.06;99819.75;5071517;28;20523;-70
2022/11/18 02:23:33;;;;;;;23.90;10.80;;;;;;;2.84;93.78;99822.44;5071481;28;20838;-70
2022/11/18 02:26:24;;;;;;;21.00;10.10;;;;;;;2.76;93.35;99826.44;5052845;28;20426;-71
2022/11/18 02:29:01;;;;;;;19.80;10.30;;;;;;;2.84;93.85;99827.78;5065496;28;20465;-69
2022/11/18 02:31:33;;;;;;;24.70;11.20;;;;;;;2.89;94.80;99824.31;5076777;28;20421;-69
2022/11/18 02:34:03;;;;;;;20.97;10.90;;;;;;;2.81;94.58;99825.63;5077102;28;20508;-70
2022/11/18 02:36:39;;;;;;;27.17;11.63;;;;;;;2.81;93.89;99835.53;5076948;28;20470;-69
2022/11/18 02:39:09;;;;;;;25.27;11.13;;;;;;;2.64;93.35;99827.78;5075939;28;20456;-71
2022/11/18 02:41:39;;;;;;;30.57;11.17;;;;;;;2.58;94.15;99829.66;5074139;28;20938;-69
2022/11/18 02:44:12;;;;;;;24.97;10.37;;;;;;;2.55;95.01;99829.38;5076571;28;20429;-70
2022/11/18 02:46:40;;;;;;;24.53;10.67;;;;;;;2.60;93.66;99824.81;5076877;28;20520;-70
2022/11/18 02:49:10;;;;;;;39.97;11.50;;;;;;;2.58;94.05;99839.53;5075118;28;20462;-71
2022/11/18 02:51:39;;;;;;;23.63;10.60;;;;;;;2.64;93.72;99833.13;5076651;28;20465;-70
2022/11/18 02:54:08;;;;;;;28.13;10.93;;;;;;;2.63;93.80;99843.03;5076573;28;20452;-69
2022/11/18 02:56:35;;;;;;;26.53;10.13;;;;;;;2.59;93.77;99833.94;5070941;28;20929;-69
2022/11/18 02:59:02;;;;;;;26.60;12.03;;;;;;;2.49;94.68;99831.25;5056390;28;20470;-69
2022/11/18 03:01:34;;;;;;;25.20;10.70;;;;;;;2.58;94.19;99834.19;5056165;28;20966;-69
2022/11/18 03:04:00;;;;;;;22.87;11.60;;;;;;;2.60;94.33;99829.38;5056457;28;20429;-69
2022/11/18 03:06:32;;;;;;;26.20;12.43;;;;;;;2.62;94.77;99835.28;5056411;28;20438;-69
2022/11/18 03:09:06;;;;;;;26.70;10.17;;;;;;;2.61;94.30;99833.66;5055949;28;20498;-69
2022/11/18 03:11:39;;;;;;;22.60;9.83;;;;;;;2.58;93.91;99831.53;5056325;28;20430;-69
2022/11/18 03:14:14;;;;;;;23.33;10.23;;;;;;;2.51;94.41;99823.75;5056571;28;20533;-69
2022/11/18 03:16:48;;;;;;;22.40;11.27;;;;;;;2.47;94.92;99828.03;5061915;28;20504;-69
2022/11/18 03:19:21;;;;;;;25.90;11.50;;;;;;;2.51;94.65;99835.25;5076221;28;20456;-69
2022/11/18 03:21:56;;;;;;;28.03;11.10;;;;;;;2.53;94.63;99838.47;5075917;28;20422;-69
2022/11/18 03:24:30;;;;;;;19.60;10.53;;;;;;;2.60;94.28;99838.19;5075759;28;20428;-69
2022/11/18 03:27:06;;;;;;;24.17;10.30;;;;;;;2.72;94.15;99840.63;5076139;28;20421;-69
2022/11/18 03:29:36;;;;;;;23.67;10.77;;;;;;;2.66;94.02;99842.50;5071750;28;20489;-69
2022/11/18 03:32:10;;;;;;;25.63;12.33;;;;;;;2.58;93.61;99845.69;5057005;28;20445;-70
2022/11/18 03:34:40;;;;;;;28.10;11.60;;;;;;;2.50;93.28;99857.72;5060675;28;20537;-69
2022/11/18 03:37:12;;;;;;;18.80;10.23;;;;;;;2.48;93.75;99861.72;5056171;28;20842;-69
2022/11/18 03:39:43;;;;;;;23.13;10.50;;;;;;;2.42;94.73;99857.41;5066222;28;20481;-69
2022/11/18 03:42:19;;;;;;;23.60;10.50;;;;;;;2.40;94.34;99862.25;5063714;28;20454;-70
2022/11/18 03:44:50;;;;;;;19.67;10.20;;;;;;;2.37;94.36;99860.88;5055502;28;20462;-70
2022/11/18 03:47:24;;;;;;;22.93;10.83;;;;;;;2.41;95.48;99866.50;5061852;28;20462;-70
2022/11/18 03:49:56;;;;;;;23.33;10.03;;;;;;;2.38;93.94;99867.84;5055586;28;20496;-70
2022/11/18 03:52:27;;;;;;;26.93;12.30;;;;;;;2.21;94.68;99872.59;5055550;28;20431;-69
2022/11/18 03:54:56;;;;;;;30.00;10.67;;;;;;;2.28;95.10;99873.16;5055560;28;20516;-70
2022/11/18 03:57:27;;;;;;;25.63;11.00;;;;;;;2.29;95.73;99872.09;5070829;28;20568;-70
2022/11/18 03:59:59;;;;;;;18.77;10.67;;;;;;;2.22;97.02;99867.00;5075010;28;20466;-71
2022/11/18 04:02:29;;;;;;;29.00;11.83;;;;;;;2.21;96.90;99875.28;5075137;28;20969;-69
2022/11/18 04:04:57;;;;;;;28.30;12.57;;;;;;;2.25;96.24;99876.34;5067220;28;20533;-71
2022/11/18 04:07:30;;;;;;;28.50;11.80;;;;;;;2.20;96.53;99885.16;5054716;28;20955;-69
2022/11/18 04:10:01;;;;;;;24.23;11.37;;;;;;;2.26;97.04;99876.09;5055170;28;20501;-69
2022/11/18 04:12:33;;;;;;;29.23;11.83;;;;;;;2.21;97.22;99884.13;5055104;28;20510;-70
2022/11/18 04:14:59;;;;;;;29.10;12.87;;;;;;;2.27;97.86;99876.91;5055286;28;20842;-70
2022/11/18 04:17:29;;;;;;;30.43;13.60;;;;;;;2.32;96.48;99878.78;5055194;28;20482;-69
2022/11/18 04:19:56;;;;;;;30.93;13.00;;;;;;;2.31;96.99;99883.34;5054662;28;20890;-71
2022/11/18 04:22:22;;;;;;;31.33;13.07;;;;;;;2.22;96.13;99887.59;5055527;28;20446;-69
2022/11/18 04:24:49;;;;;;;26.40;13.00;;;;;;;2.14;96.12;99893.44;5054809;28;20438;-70
2022/11/18 04:27:16;;;;;;;30.30;13.80;;;;;;;2.07;95.80;99892.88;5054978;28;20442;-70
2022/11/18 04:29:42;;;;;;;35.73;12.03;;;;;;;2.10;96.00;99892.34;5054318;28;20991;-69
2022/11/18 04:32:09;;;;;;;27.93;13.50;;;;;;;2.12;96.02;99893.69;5054644;28;20446;-70
2022/11/18 04:34:37;;;;;;;23.27;12.03;;;;;;;2.09;97.29;99894.22;5054433;28;21028;-70
2022/11/18 04:37:03;;;;;;;23.77;11.63;;;;;;;2.09;96.20;99891.56;5072227;28;20588;-70
2022/11/18 04:39:30;;;;;;;28.50;13.70;;;;;;;2.07;97.01;99904.34;5061898;28;20554;-70
2022/11/18 04:41:56;;;;;;;26.03;13.43;;;;;;;2.09;97.12;99899.56;5054351;28;20446;-70
2022/11/18 04:44:24;;;;;;;31.40;12.97;;;;;;;2.10;97.96;99905.72;5065530;28;20484;-69
2022/11/18 04:46:52;;;;;;;28.53;12.83;;;;;;;2.09;96.66;99907.56;5073761;28;20540;-69
2022/11/18 04:49:18;;;;;;;28.00;12.10;;;;;;;2.17;97.21;99919.59;5070165;28;20470;-70
2022/11/18 04:51:47;;;;;;;30.57;13.90;;;;;;;2.06;97.06;99912.63;5054072;28;20939;-69
2022/11/18 04:54:15;;;;;;;34.60;14.07;;;;;;;2.06;98.10;99917.97;5059095;28;20460;-71
2022/11/18 04:56:42;;;;;;;37.70;14.13;;;;;;;2.07;98.57;99919.56;5073033;28;20572;-69
2022/11/18 04:59:09;;;;;;;31.00;14.03;;;;;;;2.12;98.53;99925.72;5073171;28;21152;-69
2022/11/18 05:01:36;;;;;;;33.70;14.67;;;;;;;2.15;98.59;99924.41;5069988;28;20464;-69
2022/11/18 05:04:04;;;;;;;32.53;14.10;;;;;;;2.13;98.20;99935.38;5072988;28;20459;-70
2022/11/18 05:06:31;;;;;;;36.33;14.33;;;;;;;2.15;98.24;99927.88;5073160;28;20463;-69
2022/11/18 05:09:00;;;;;;;28.67;14.03;;;;;;;2.07;97.67;99936.41;5063091;28;20478;-69
2022/11/18 05:14:20;;;;;;;31.77;13.57;;;;;;;1.99;97.98;99942.22;5039004;28;20462;-69
2022/11/18 05:16:47;;;;;;;31.40;13.80;;;;;;;1.84;98.94;99937.63;5071484;28;20485;-69
2022/11/18 05:19:14;;;;;;;29.43;13.70;;;;;;;1.84;99.53;99942.97;5071919;28;20485;-69
2022/11/18 05:21:40;;;;;;;29.07;13.57;;;;;;;1.88;100.00;99938.72;5054165;28;20501;-69
2022/11/18 05:24:08;;;;;;;29.57;13.07;;;;;;;1.85;99.01;99947.25;5066038;28;20461;-69
2022/11/18 05:26:35;;;;;;;39.00;14.80;;;;;;;1.76;99.04;99949.59;5071078;28;20967;-69
2022/11/18 05:29:01;;;;;;;30.73;12.63;;;;;;;1.63;99.48;99941.25;5072616;28;20868;-69
2022/11/18 05:31:28;;;;;;;31.07;12.80;;;;;;;1.60;100.00;99949.78;5060199;28;20550;-69
2022/11/18 05:33:55;;;;;;;32.60;13.70;;;;;;;1.62;100.00;99945.78;5055162;28;20461;-69
2022/11/18 05:36:22;;;;;;;32.73;12.50;;;;;;;1.63;100.00;99941.25;5072669;28;20461;-69
2022/11/18 05:38:49;;;;;;;32.10;14.37;;;;;;;1.60;99.89;99958.59;5072733;28;20456;-69
2022/11/18 05:43:58;;;;;;;29.03;13.07;;;;;;;1.54;98.73;99964.13;5067581;28;20552;-69
2022/11/18 05:46:26;;;;;;;25.63;11.90;;;;;;;1.59;98.68;99962.28;5066747;28;20533;-69
2022/11/18 05:48:53;;;;;;;30.60;13.13;;;;;;;1.61;98.42;99962.84;5054713;28;20545;-70
2022/11/18 05:51:19;;;;;;;26.23;12.10;;;;;;;1.68;98.15;99971.47;5068909;28;20456;-69
2022/11/18 05:53:48;;;;;;;28.40;12.17;;;;;;;1.69;98.83;99981.06;5071656;28;20461;-69
2022/11/18 05:56:20;;;;;;;33.93;14.90;;;;;;;1.79;98.98;99983.00;5071578;28;20453;-70
2022/11/18 05:58:47;;;;;;;33.83;13.70;;;;;;;1.65;96.48;99993.31;5071557;28;20493;-69
2022/11/18 06:01:18;;;;;;;32.90;14.20;;;;;;;1.69;96.88;99989.06;5072593;28;20461;-69
2022/11/18 06:03:44;;;;;;;24.60;12.37;;;;;;;1.61;95.18;99986.88;5058477;28;20466;-69
2022/11/18 06:06:15;;;;;;;29.20;13.20;;;;;;;1.62;95.92;99993.81;5067979;28;20467;-69
2022/11/18 06:08:48;;;;;;;30.30;11.87;;;;;;;1.67;96.05;99993.84;5057535;28;20565;-69
2022/11/18 06:11:19;;;;;;;25.63;12.27;;;;;;;1.76;95.42;100003.00;5072884;28;20516;-69
2022/11/18 06:13:50;;;;;;;25.93;11.07;;;;;;;1.77;94.96;99996.59;5070148;28;20545;-69
2022/11/18 06:16:20;;;;;;;22.47;10.47;;;;;;;1.71;94.21;99996.81;5062274;28;20981;-69
2022/11/18 06:18:46;;;;;;;24.97;12.20;;;;;;;1.64;94.13;100006.91;5071807;28;20489;-70
2022/11/18 06:21:13;;;;;;;23.37;10.23;;;;;;;1.66;93.49;100005.59;5073125;28;20440;-69
2022/11/18 06:23:42;;;;;;;26.37;11.27;;;;;;;1.65;93.50;100009.34;5064302;28;20545;-69
2022/11/18 06:26:11;;;;;;;24.47;10.43;;;;;;;1.61;92.85;100004.75;5068717;28;20470;-69
2022/11/18 06:28:50;;;;;;;20.73;11.30;;;;;;;1.62;93.13;100012.50;5054177;28;20507;-69
2022/11/18 06:31:16;;;;;;;27.73;10.57;;;;;;;1.58;92.77;100014.06;5073086;28;20461;-68
2022/11/18 06:33:43;;;;;;;27.20;10.90;;;;;;;1.62;92.26;100012.50;5069427;28;20487;-70
2022/11/18 06:36:10;;;;;;;25.30;9.90;;;;;;;1.66;92.29;100016.28;5055353;28;20545;-70
2022/11/18 06:38:36;;;;;;;20.37;9.97;;;;;;;1.58;90.40;100022.09;5063027;28;20489;-70
2022/11/18 06:41:03;;;;;;;22.13;10.23;;;;;;;1.65;91.38;100028.03;5072178;28;20467;-69
2022/11/18 06:43:38;;;;;;;24.30;10.30;;;;;;;1.62;90.37;100025.03;5071589;28;20540;-70
2022/11/18 06:48:52;;;;;;;26.57;11.07;;;;;;;1.65;89.86;100022.69;5065795;28;20469;-69
2022/11/18 06:51:19;;;;;;;21.27;8.13;;;;;;;1.65;89.67;100032.56;5052786;28;20453;-68
2022/11/18 06:53:46;;;;;;;26.20;10.50;;;;;;;1.69;89.24;100037.13;5052423;28;20549;-71
2022/11/18 06:56:14;;;;;;;24.33;11.90;;;;;;;1.73;88.50;100043.56;5056222;28;20987;-64
2022/11/18 06:58:41;;;;;;;28.53;9.80;;;;;;;1.62;88.06;100039.19;5052650;28;20500;-65
2022/11/18 07:01:13;;;;;;;21.97;10.30;;;;;;;1.66;88.20;100040.28;5058463;28;20550;-66
2022/11/18 07:03:40;;;;;;;26.97;11.00;;;;;;;1.71;88.34;100058.22;5061200;28;20541;-70
2022/11/18 07:06:07;;;;;;;20.40;9.57;;;;;;;1.68;87.69;100054.22;5065789;28;21012;-71
2022/11/18 07:08:35;;;;;;;24.87;11.03;;;;;;;1.64;87.65;100049.59;5055682;28;20513;-71
2022/11/18 07:11:04;;;;;;;22.53;9.97;;;;;;;1.51;86.19;100056.19;5052592;28;20453;-68
2022/11/18 07:13:30;;;;;;;23.90;9.90;;;;;;;1.65;86.86;100048.56;5059363;28;20893;-67
2022/11/18 07:16:02;;;;;;;21.00;10.60;;;;;;;1.62;87.20;100051.75;5073665;28;20473;-67
2022/11/18 07:18:31;;;;;;;23.80;10.07;;;;;;;1.52;88.15;100063.94;5071807;28;20569;-68
2022/11/18 07:21:01;;;;;;;19.67;9.57;;;;;;;1.51;87.99;100064.22;5056237;28;20481;-69
2022/11/18 07:23:28;;;;;;;23.33;10.20;;;;;;;1.58;87.93;100074.66;5065300;28;20456;-68
2022/11/18 07:25:55;;;;;;;24.93;10.70;;;;;;;1.62;87.63;100065.88;5069954;28;20868;-67
2022/11/18 07:28:22;;;;;;;20.90;10.20;;;;;;;1.71;87.47;100072.38;5068611;28;20512;-67
2022/11/18 07:30:48;;;;;;;23.77;9.67;;;;;;;1.61;86.81;100069.63;5073173;28;20556;-67
2022/11/18 07:33:15;;;;;;;25.60;9.10;;;;;;;1.54;86.30;100081.56;5074713;28;20487;-68
2022/11/18 07:35:43;;;;;;;24.33;11.60;;;;;;;1.51;87.33;100077.56;5075342;28;20445;-69
2022/11/18 07:38:10;;;;;;;22.03;11.07;;;;;;;1.51;86.53;100082.88;5075014;28;20487;-69
2022/11/18 07:40:36;;;;;;;22.17;9.87;;;;;;;1.53;86.57;100075.41;5071823;28;20457;-68
2022/11/18 07:43:03;;;;;;;26.33;11.70;;;;;;;1.58;86.00;100080.78;5070396;28;20547;-68
2022/11/18 07:45:29;;;;;;;20.80;10.20;;;;;;;1.58;85.40;100094.13;5074855;28;20448;-68
2022/11/18 07:47:56;;;;;;;21.13;10.00;;;;;;;1.52;84.67;100089.81;5075140;28;20532;-68
2022/11/18 07:50:22;;;;;;;25.80;11.20;;;;;;;1.52;84.53;100095.97;5074881;28;20455;-68
2022/11/18 07:52:50;;;;;;;26.30;10.93;;;;;;;1.58;84.91;100088.00;5075042;28;20818;-67
2022/11/18 07:55:17;;;;;;;20.63;10.20;;;;;;;1.68;85.56;100096.09;5075100;28;20445;-68
2022/11/18 07:57:43;;;;;;;21.23;9.13;;;;;;;1.57;84.60;100102.41;5074633;28;21058;-69
2022/11/18 08:00:11;;;;;;;23.90;11.20;;;;;;;1.54;84.95;100103.72;5075141;28;20441;-69
2022/11/18 08:02:37;;;;;;;19.03;10.07;;;;;;;1.61;84.95;100107.00;5074921;28;20449;-70
2022/11/18 08:05:05;;;;;;;24.00;10.43;;;;;;;1.59;84.00;100113.63;5074967;28;20484;-69
2022/11/18 08:07:31;;;;;;;33.03;11.60;;;;;;;1.54;83.99;100106.38;5074990;28;20440;-69
2022/11/18 08:09:59;;;;;;;21.67;10.70;;;;;;;1.50;84.33;100111.41;5074738;28;20544;-70
2022/11/18 08:12:26;;;;;;;24.23;10.93;;;;;;;1.57;84.82;100111.22;5074803;28;20433;-69
2022/11/18 08:14:52;;;;;;;19.80;9.90;;;;;;;1.64;84.39;100108.31;5074762;28;20482;-69
2022/11/18 08:17:19;;;;;;;26.13;11.50;;;;;;;1.57;83.98;100119.22;5074805;28;20443;-69
2022/11/18 08:19:45;;;;;;;22.13;10.30;;;;;;;1.46;82.63;100123.69;5074680;28;20548;-69
2022/11/18 08:22:12;;;;;;;27.73;12.00;;;;;;;1.51;83.21;100117.56;5074741;28;20445;-69
2022/11/18 08:24:38;;;;;;;34.60;11.80;;;;;;;1.52;83.95;100111.19;5074706;28;20477;-69
2022/11/18 08:27:06;;;;;;;21.73;10.23;;;;;;;1.59;83.94;100122.44;5073547;28;20481;-69
2022/11/18 08:29:33;;;;;;;22.83;10.60;;;;;;;1.50;82.68;100121.28;5074097;28;20505;-69
2022/11/18 08:32:01;;;;;;;21.03;10.20;;;;;;;1.55;83.06;100121.34;5074660;28;20534;-68
2022/11/18 08:34:27;;;;;;;18.40;8.67;;;;;;;1.68;83.00;100125.44;5074745;28;20488;-68
2022/11/18 08:36:55;;;;;;;25.87;11.50;;;;;;;1.68;83.22;100123.63;5074351;28;20459;-70
2022/11/18 08:39:21;;;;;;;24.27;10.90;;;;;;;1.78;82.83;100133.56;5074153;28;20495;-68
2022/11/18 08:41:48;;;;;;;24.90;10.10;;;;;;;1.76;81.99;100128.47;5074496;28;20455;-67
2022/11/18 08:44:17;;;;;;;19.27;9.87;;;;;;;1.52;80.97;100138.66;5074432;28;20537;-68
2022/11/18 08:46:44;;;;;;;25.43;10.57;;;;;;;1.50;82.47;100145.31;5074311;28;20445;-69
2022/11/18 08:49:11;;;;;;;23.90;11.10;;;;;;;1.49;83.48;100149.03;5073688;28;20974;-68
2022/11/18 08:51:38;;;;;;;25.10;11.10;;;;;;;1.64;83.36;100157.22;5074301;28;20440;-68
2022/11/18 08:54:05;;;;;;;25.57;10.50;;;;;;;1.75;82.66;100147.41;5073691;28;20887;-67
2022/11/18 08:56:31;;;;;;;23.77;10.93;;;;;;;1.79;81.58;100153.88;5073657;28;20880;-68
2022/11/18 08:58:58;;;;;;;22.63;9.80;;;;;;;1.60;81.22;100156.09;5073429;28;20664;-69
2022/11/18 09:01:26;;;;;;;23.40;9.43;;;;;;;1.51;82.20;100158.41;5073530;28;20451;-68
2022/11/18 09:03:52;;;;;;;19.57;10.03;;;;;;;1.51;81.75;100161.09;5073588;28;21030;-68
2022/11/18 09:06:21;;;;;;;24.70;10.83;;;;;;;1.50;82.43;100167.44;5073752;28;20883;-67
2022/11/18 09:08:48;;;;;;;19.87;10.17;;;;;;;1.49;82.14;100171.19;5073711;28;20493;-69
2022/11/18 09:11:16;;;;;;;20.73;9.30;;;;;;;1.46;81.30;100184.22;5073716;28;20868;-68
2022/11/18 09:13:43;;;;;;;32.90;10.50;;;;;;;1.46;81.60;100184.22;5073737;28;20550;-69
2022/11/18 09:16:10;;;;;;;23.93;10.60;;;;;;;1.33;81.16;100192.59;5073694;28;20815;-68
2022/11/18 09:18:38;;;;;;;21.97;10.20;;;;;;;1.38;82.05;100192.69;5073515;28;20511;-67
2022/11/18 09:21:06;;;;;;;19.90;9.60;;;;;;;1.48;81.93;100206.13;5073642;28;20480;-69
2022/11/18 09:23:34;;;;;;;25.07;9.60;;;;;;;1.46;82.22;100203.72;5073789;28;20437;-68
2022/11/18 09:26:02;;;;;;;18.90;9.33;;;;;;;1.52;80.93;100204.59;5073111;28;20544;-69
2022/11/18 09:28:29;;;;;;;24.83;10.37;;;;;;;1.43;80.69;100203.41;5073324;28;20481;-69
2022/11/18 09:30:55;;;;;;;25.97;9.63;;;;;;;1.49;80.96;100208.53;5073639;28;20470;-68
2022/11/18 09:33:22;;;;;;;19.77;8.70;;;;;;;1.54;81.55;100205.13;5073627;28;20881;-68
2022/11/18 09:35:50;;;;;;;17.60;7.80;;;;;;;1.45;79.72;100209.28;5073281;28;20445;-68
2022/11/18 09:38:17;;;;;;;18.67;8.97;;;;;;;1.43;80.29;100220.22;5072693;28;20580;-66
2022/11/18 09:40:55;;;;;;;24.23;10.17;;;;;;;1.46;79.89;100221.56;5073162;28;20438;-71
2022/11/18 09:43:30;;;;;;;20.90;9.57;;;;;;;1.46;80.59;100218.91;5072813;28;20439;-70
2022/11/18 09:46:06;;;;;;;17.63;8.40;;;;;;;1.46;80.84;100218.91;5073134;28;20425;-70
2022/11/18 09:51:27;;;;;;;13.67;7.17;;;;;;;1.43;81.23;100222.09;5073192;28;20503;-70
2022/11/18 09:53:54;;;;;;;15.70;7.60;;;;;;;1.44;81.63;100219.16;5073022;28;20436;-72
2022/11/18 09:56:22;;;;;;;14.57;7.37;;;;;;;1.51;81.27;100227.00;5073157;28;20528;-70
2022/11/18 09:58:48;;;;;;;19.00;8.60;;;;;;;1.50;81.98;100225.34;5072504;28;20492;-70
2022/11/18 10:01:19;;;;;;;19.87;8.43;;;;;;;1.49;81.46;100231.75;5073021;28;20537;-70
2022/11/18 10:03:46;;;;;;;16.07;7.60;;;;;;;1.53;82.71;100246.22;5072713;28;20966;-69
2022/11/18 10:06:20;;;;;;;18.40;8.67;;;;;;;1.63;82.54;100243.66;5073114;28;20441;-70
2022/11/18 10:08:59;;;;;;;19.77;8.00;;;;;;;1.73;81.33;100246.47;5072335;28;21013;-71
2022/11/18 10:11:32;;;;;;;15.77;7.57;;;;;;;1.73;81.12;100245.66;5072944;28;20429;-68
2022/11/18 10:14:14;;;;;;;16.00;7.40;;;;;;;1.75;80.40;100254.19;5072756;28;20467;-71
2022/11/18 10:16:48;;;;;;;15.87;6.57;;;;;;;1.70;80.42;100246.16;5072631;28;20466;-70
2022/11/18 10:19:25;;;;;;;12.97;5.57;;;;;;;1.63;79.16;100257.00;5072609;28;20943;-70
2022/11/18 10:22:04;;;;;;;17.43;6.57;;;;;;;1.61;79.60;100253.00;5072843;28;20512;-70
2022/11/18 10:24:37;;;;;;;15.00;6.70;;;;;;;1.58;79.98;100264.16;5072863;28;20425;-70
2022/11/18 10:27:10;;;;;;;13.70;6.77;;;;;;;1.60;80.00;100262.06;5072747;28;20954;-71
2022/11/18 10:29:37;;;;;;;13.77;6.70;;;;;;;1.69;79.44;100244.53;5072554;28;20566;-70
2022/11/18 10:32:06;;;;;;;15.67;7.07;;;;;;;1.71;80.04;100258.44;5072686;28;20448;-70
2022/11/18 10:34:34;;;;;;;11.00;5.43;;;;;;;1.58;77.99;100258.81;5072973;28;20472;-70
2022/11/18 10:37:03;;;;;;;11.50;5.70;;;;;;;1.56;78.79;100259.06;5072415;28;20473;-70
2022/11/18 10:39:29;;;;;;;11.57;5.47;;;;;;;1.50;79.48;100260.06;5072280;28;20572;-70
2022/11/18 10:42:01;;;;;;;13.37;5.70;;;;;;;1.61;79.08;100267.13;5072629;28;20426;-70
2022/11/18 10:44:31;;;;;;;13.50;5.50;;;;;;;1.65;78.79;100265.59;5072744;28;20453;-70
2022/11/18 10:47:16;;;;;;;12.63;5.90;;;;;;;1.84;78.19;100270.59;5072437;28;20815;-70
2022/11/18 10:49:42;;;;;;;10.13;5.27;;;;;;;1.92;77.87;100278.16;5072601;28;20503;-70
2022/11/18 10:52:11;;;;;;;10.33;5.23;;;;;;;2.00;76.10;100281.19;5075490;28;20533;-70
2022/11/18 10:54:38;;;;;;;10.20;5.40;;;;;;;2.03;75.98;100275.31;5076459;28;20477;-71
2022/11/18 10:57:13;;;;;;;9.50;5.40;;;;;;;1.99;76.56;100284.09;5076207;28;20541;-71
2022/11/18 10:59:45;;;;;;;13.40;5.83;;;;;;;1.94;77.22;100284.03;5076441;28;21012;-71
2022/11/18 11:02:18;;;;;;;11.77;5.07;;;;;;;2.00;77.40;100286.53;5076655;28;20425;-71
2022/11/18 11:04:45;;;;;;;10.73;4.67;;;;;;;2.05;77.40;100290.31;5076291;28;20460;-71
2022/11/18 11:07:23;;;;;;;11.40;4.87;;;;;;;2.09;78.11;100281.53;5076118;28;21039;-70
2022/11/18 11:10:00;;;;;;;11.53;5.00;;;;;;;2.24;77.55;100286.22;5076585;28;20488;-71
2022/11/18 11:12:30;;;;;;;10.70;4.87;;;;;;;2.38;76.08;100295.41;5076235;28;20619;-70
2022/11/18 11:14:59;;;;;;;9.43;4.60;;;;;;;2.44;74.90;100305.13;5076529;28;20516;-71
2022/11/18 11:17:31;;;;;;;15.33;4.47;;;;;;;2.21;74.85;100297.41;5076117;28;20441;-70
2022/11/18 11:20:05;;;;;;;9.57;4.80;;;;;;;2.28;75.83;100296.13;5075907;28;20484;-70
2022/11/18 11:22:32;;;;;;;9.17;4.20;;;;;;;2.25;75.12;100291.28;5075730;28;20434;-70
2022/11/18 11:24:59;;;;;;;9.60;4.57;;;;;;;2.31;74.62;100304.72;5076157;28;20443;-71
2022/11/18 11:27:42;;;;;;;12.30;4.90;;;;;;;2.35;74.09;100305.84;5075925;28;20455;-71
2022/11/18 11:30:15;;;;;;;13.30;5.40;;;;;;;2.28;74.53;100301.47;5076053;28;20429;-71
2022/11/18 11:33:31;;;;;;;10.30;4.43;;;;;;;2.19;74.97;100300.31;5075851;28;20432;-70
2022/11/18 11:36:10;;;;;;;14.53;5.23;;;;;;;2.29;74.69;100304.97;5075662;28;20926;-71
2022/11/18 11:38:52;;;;;;;12.40;5.40;;;;;;;2.33;74.80;100297.25;5075652;28;20523;-71
2022/11/18 11:41:22;;;;;;;9.20;4.60;;;;;;;2.25;74.42;100306.53;5076079;28;20436;-71
2022/11/18 11:44:18;;;;;;;9.90;4.93;;;;;;;2.20;75.98;100301.13;5076054;28;20429;-70
2022/11/18 11:49:49;;;;;;;11.97;4.93;;;;;;;2.21;74.28;100300.91;5075343;28;20855;-71
2022/11/18 11:52:23;;;;;;;10.80;5.00;;;;;;;2.19;74.11;100308.34;5075235;28;20466;-70
2022/11/18 11:54:58;;;;;;;11.50;5.13;;;;;;;2.11;74.48;100298.09;5075159;28;20504;-70
2022/11/18 11:57:39;;;;;;;9.73;4.77;;;;;;;2.07;74.20;100305.00;5072907;28;20544;-68